Aeroporto :
LOGIN :

Iscrizione | Disclaimer

   EN    FR    IT 

 










Sommario :    VFR   VFR Marginale   IFR   IFR Intensivo   IFR Molto Intensivo
Visibilità : 
Base nubi : 
>= 8 km
>= 3000ft
5 / 8 km
1000 / 3000 ft
1500m / 5 km
500 / 1000 ft
800 / 1500m
200 / 500 ft
< 800m
< 200 ft
Simboli :   Temporali  Nebbia  Neve Forte  Precipitazioni Forti  Vento > 20 kt
SIGMETs :   Varie  Temporali  Ghiacco  Turbolenza  Onda orograficha  Ceneri Vulcaniche






- Altitudine del aeroporto : 277 ft
- Codice IATA : JER


EGJJ - Jersey

ULTIMO METAR :
  • 271950Z 27014KT 9999 FEW017 SCT021 11/10 Q1011

METARs OBSOLETI :
  • 271920Z 26012KT 9000 VCSH FEW009 SCT011 12/12 Q1011
  • 271850Z 25012KT 9000 VCSH FEW009 SCT011 12/12 Q1011
  • 271820Z 25011KT 9000 VCSH FEW008 SCT014 12/12 Q1011
  • 271750Z 23007KT 200V260 9999 VCSH FEW008 SCT010 12/12 Q1011
  • 271720Z 24007KT 9999 VCSH FEW004 SCT010 12/12 Q1011
  • 271650Z 25009KT 9999 -RA FEW004 SCT005 12/12 Q1011

TAF AMD TAF EGJJ
Valido dal 27 a 19 ore il 28 a 03 ore UTC


271918Z 2719/2803 27012KT 9999 SCT015 BKN040
TEMPO 2719/2803 6000 SHRA BKN011
ATIS : +44 1534 498 073



MetMap, La meteo Aeronautica in un colpo d'occhio ! - Copyright ORBIFLY Dicembre 2007 - Disclaimer

ORBIFLY MET'MAP TEAM :

Programmazione e sviluppo : Alexandra Zaïnal
Concezione : Baudouin d'Aumeries
Supporto tecnico e logistico : Manuel Goepfert
Aiuto : Marc-Olivier Méhu
Aiuto per la traduzione : Arnaldo La Scala




FONTI E CREDITI :

   NOAA